createdAt,value
2022-08-20T00:00:42.922Z,94996.63
2022-08-20T00:03:18.848Z,94995.46
2022-08-20T00:05:53.967Z,94991.72
2022-08-20T00:08:27.336Z,94995.91
2022-08-20T00:11:01.423Z,94996.34
2022-08-20T00:13:38.210Z,95003.72
2022-08-20T00:16:11.352Z,95000.55
2022-08-20T00:18:42.589Z,95000.91
2022-08-20T00:21:18.672Z,94997.20
2022-08-20T00:23:51.784Z,94991.12
2022-08-20T00:26:23.084Z,94987.92
2022-08-20T00:28:53.437Z,94991.99
2022-08-20T00:31:25.003Z,94990.77
2022-08-20T00:33:54.306Z,94990.23
2022-08-20T00:36:32.769Z,94992.36
2022-08-20T00:39:02.728Z,94994.27
2022-08-20T00:41:31.890Z,94990.57
2022-08-20T00:44:31.581Z,94987.67
2022-08-20T00:47:00.927Z,94985.63
2022-08-20T00:49:32.483Z,94984.09
2022-08-20T00:52:14.263Z,94982.71
2022-08-20T00:54:55.046Z,94979.48
2022-08-20T00:57:44.529Z,94980.24
2022-08-20T01:00:28.571Z,94977.39
2022-08-20T01:03:00.890Z,94980.91
2022-08-20T01:05:30.979Z,94984.81
2022-08-20T01:07:59.469Z,94977.48
2022-08-20T01:10:33.274Z,94972.63
2022-08-20T01:13:11.365Z,94978.59
2022-08-20T01:15:43.795Z,94977.69
2022-08-20T01:18:18.549Z,94979.55
2022-08-20T01:21:04.849Z,94977.13
2022-08-20T01:23:55.779Z,94968.48
2022-08-20T01:26:31.864Z,94972.65
2022-08-20T01:29:12.553Z,94971.69
2022-08-20T01:31:46.128Z,94970.85
2022-08-20T01:34:21.310Z,94972.70
2022-08-20T01:36:53.407Z,94970.83
2022-08-20T01:39:27.737Z,94971.71
2022-08-20T01:42:15.683Z,94965.71
2022-08-20T01:44:47.424Z,94966.86
2022-08-20T01:47:26.231Z,94965.48
2022-08-20T01:50:00.801Z,94967.91
2022-08-20T01:52:34.849Z,94968.23
2022-08-20T01:55:06.740Z,94969.25
2022-08-20T01:57:37.745Z,94964.17
2022-08-20T02:00:17.943Z,94957.27
2022-08-20T02:02:51.056Z,94958.31
2022-08-20T02:05:21.174Z,94962.20
2022-08-20T02:07:49.798Z,94952.34
2022-08-20T02:10:19.231Z,94948.55
2022-08-20T02:12:47.784Z,94948.98
2022-08-20T02:15:18.958Z,94946.99
2022-08-20T02:18:07.988Z,94947.58
2022-08-20T02:20:41.917Z,94941.04
2022-08-20T02:23:12.598Z,94937.95
2022-08-20T02:25:44.103Z,94933.66
2022-08-20T02:28:15.935Z,94937.68
2022-08-20T02:30:48.721Z,94932.92
2022-08-20T02:33:22.338Z,94937.96
2022-08-20T02:35:56.655Z,94947.64
2022-08-20T02:38:26.194Z,94952.14
2022-08-20T02:40:56.832Z,94955.66
2022-08-20T02:43:26.085Z,94955.23
2022-08-20T02:45:54.711Z,94949.10
2022-08-20T02:48:23.991Z,94942.34
2022-08-20T02:50:59.002Z,94933.52
2022-08-20T02:53:30.415Z,94932.35
2022-08-20T02:56:04.355Z,94940.16
2022-08-20T02:58:36.219Z,94936.96
2022-08-20T03:01:08.142Z,94933.20
2022-08-20T03:03:37.084Z,94925.75
2022-08-20T03:06:07.412Z,94926.98
2022-08-20T03:08:37.792Z,94928.91
2022-08-20T03:11:07.308Z,94940.42
2022-08-20T03:13:36.803Z,94933.87
2022-08-20T03:16:07.528Z,94923.06
2022-08-20T03:18:41.577Z,94922.77
2022-08-20T03:21:11.825Z,94925.80
2022-08-20T03:23:44.148Z,94929.54
2022-08-20T03:26:14.598Z,94931.12
2022-08-20T03:28:45.110Z,94924.91
2022-08-20T03:31:18.185Z,94925.66
2022-08-20T03:33:52.601Z,94928.98
2022-08-20T03:36:28.285Z,94939.15
2022-08-20T03:38:59.691Z,94948.14
2022-08-20T03:41:29.310Z,94948.94
2022-08-20T03:43:58.638Z,94941.18
2022-08-20T03:46:29.271Z,94937.26
2022-08-20T03:49:00.023Z,94932.40
2022-08-20T03:51:34.385Z,94928.89
2022-08-20T03:54:23.984Z,94927.87
2022-08-20T03:56:58.199Z,94924.45
2022-08-20T03:59:27.067Z,94926.30
2022-08-20T04:01:57.686Z,94921.67
2022-08-20T04:04:28.549Z,94919.13
2022-08-20T04:07:02.355Z,94922.64
2022-08-20T04:09:31.934Z,94922.96
2022-08-20T04:12:01.389Z,94928.77
2022-08-20T04:14:32.463Z,94927.31
2022-08-20T04:17:10.898Z,94927.77
2022-08-20T04:19:39.625Z,94928.75
2022-08-20T04:22:08.764Z,94929.23
2022-08-20T04:24:37.645Z,94924.59
2022-08-20T04:27:06.341Z,94920.55
2022-08-20T04:29:37.049Z,94919.27
2022-08-20T04:32:07.385Z,94921.61
2022-08-20T04:34:37.398Z,94921.80
2022-08-20T04:37:16.567Z,94923.11
2022-08-20T04:40:06.330Z,94922.25
2022-08-20T04:42:39.441Z,94930.04
2022-08-20T04:45:11.047Z,94930.35
2022-08-20T04:47:42.118Z,94930.86
2022-08-20T04:50:14.562Z,94931.36
2022-08-20T04:52:45.721Z,94931.90
2022-08-20T04:55:20.691Z,94933.98
2022-08-20T04:57:54.993Z,94936.66
2022-08-20T05:00:23.898Z,94942.41
2022-08-20T05:02:53.136Z,94933.88
2022-08-20T05:05:22.922Z,94933.47
2022-08-20T05:07:52.620Z,94926.73
2022-08-20T05:10:26.614Z,94927.58
2022-08-20T05:12:57.202Z,94926.75
2022-08-20T05:15:26.987Z,94927.42
2022-08-20T05:18:00.914Z,94923.17
2022-08-20T05:20:34.349Z,94914.69
2022-08-20T05:23:04.586Z,94912.61
2022-08-20T05:25:34.624Z,94918.43
2022-08-20T05:28:10.035Z,94915.37
2022-08-20T05:30:41.611Z,94911.33
2022-08-20T05:33:16.542Z,94914.83
2022-08-20T05:35:45.403Z,94911.85
2022-08-20T05:38:16.698Z,94912.39
2022-08-20T05:40:46.716Z,94912.90
2022-08-20T05:43:16.382Z,94909.48
2022-08-20T05:45:50.699Z,94905.46
2022-08-20T05:48:25.652Z,94897.38
2022-08-20T05:50:55.066Z,94895.25
2022-08-20T05:53:25.603Z,94897.73
2022-08-20T05:55:55.341Z,94892.05
2022-08-20T05:58:34.433Z,94890.82
2022-08-20T06:01:04.390Z,94894.26
2022-08-20T06:03:52.450Z,94889.94
2022-08-20T06:06:44.982Z,94891.05
2022-08-20T06:09:12.554Z,94888.29
2022-08-20T06:11:45.054Z,94887.06
2022-08-20T06:14:16.859Z,94879.70
2022-08-20T06:16:57.089Z,94874.82
2022-08-20T06:19:32.361Z,94876.23
2022-08-20T06:22:08.664Z,94865.92
2022-08-20T06:24:51.997Z,94867.20
2022-08-20T06:27:21.132Z,94861.23
2022-08-20T06:29:54.373Z,94860.08
2022-08-20T06:32:32.288Z,94864.05
2022-08-20T06:35:04.820Z,94870.07
2022-08-20T06:37:38.396Z,94874.09
2022-08-20T06:40:14.159Z,94869.80
2022-08-20T06:42:48.834Z,94872.48
2022-08-20T06:45:32.368Z,94881.25
2022-08-20T06:48:06.716Z,94885.20
2022-08-20T06:50:47.864Z,94882.18
2022-08-20T06:53:20.729Z,94885.20
2022-08-20T06:55:53.497Z,94887.64
2022-08-20T06:58:36.665Z,94892.46
2022-08-20T07:01:09.364Z,94896.67
2022-08-20T07:03:55.397Z,94890.52
2022-08-20T07:06:28.702Z,94887.14
2022-08-20T07:09:01.592Z,94884.15
2022-08-20T07:11:30.564Z,94882.18
2022-08-20T07:14:03.025Z,94878.44
2022-08-20T07:16:34.566Z,94875.98
2022-08-20T07:19:03.749Z,94877.77
2022-08-20T07:21:34.038Z,94875.40
2022-08-20T07:24:04.506Z,94873.32
2022-08-20T07:26:35.407Z,94877.89
2022-08-20T07:29:04.793Z,94877.38
2022-08-20T07:31:52.860Z,94877.75
2022-08-20T07:34:25.304Z,94883.36
2022-08-20T07:36:55.781Z,94889.30
2022-08-20T07:39:28.576Z,94891.52
2022-08-20T07:42:08.040Z,94893.55
2022-08-20T07:44:39.195Z,94891.01
2022-08-20T07:47:08.425Z,94891.96
2022-08-20T07:49:48.208Z,94893.83
2022-08-20T07:52:17.707Z,94891.88
2022-08-20T07:54:48.331Z,94887.89
2022-08-20T07:57:21.943Z,94888.21
2022-08-20T07:59:57.134Z,94891.17
2022-08-20T08:02:28.369Z,94888.87
2022-08-20T08:04:58.435Z,94891.70
2022-08-20T08:07:31.040Z,94887.81
2022-08-20T08:10:02.183Z,94895.23
2022-08-20T08:12:38.314Z,94891.23
2022-08-20T08:15:11.764Z,94889.93
2022-08-20T08:17:43.742Z,94890.42
2022-08-20T08:20:14.275Z,94886.77
2022-08-20T08:22:46.147Z,94887.88
2022-08-20T08:25:17.590Z,94885.50
2022-08-20T08:27:53.021Z,94886.27
2022-08-20T08:30:24.606Z,94888.48
2022-08-20T08:33:16.845Z,94890.67
2022-08-20T08:35:48.675Z,94887.31
2022-08-20T08:38:19.125Z,94882.57
2022-08-20T08:40:59.783Z,94882.42
2022-08-20T08:43:32.032Z,94876.83
2022-08-20T08:46:08.227Z,94881.63
2022-08-20T08:48:47.248Z,94878.19
2022-08-20T08:51:36.155Z,94873.91
2022-08-20T08:54:07.146Z,94870.29
2022-08-20T08:56:36.511Z,94872.26
2022-08-20T08:59:12.225Z,94870.88
2022-08-20T09:01:53.861Z,94868.36
2022-08-20T11:14:29.510Z,94810.56
2022-08-20T11:17:02.310Z,94808.73
2022-08-20T11:19:32.581Z,94803.23
2022-08-20T11:22:01.273Z,94804.90
2022-08-20T11:24:30.567Z,94802.93
2022-08-20T11:27:04.683Z,94805.22
2022-08-20T11:29:35.474Z,94804.39
2022-08-20T11:32:09.923Z,94807.07
2022-08-20T11:34:40.154Z,94806.98
2022-08-20T11:37:14.202Z,94804.84
2022-08-20T11:39:57.073Z,94809.05
2022-08-20T11:42:31.612Z,94814.06
2022-08-20T11:45:08.294Z,94810.30
2022-08-20T11:47:44.927Z,94808.97
2022-08-20T11:50:19.707Z,94807.14
2022-08-20T11:52:56.549Z,94806.81
2022-08-20T11:55:31.251Z,94809.60
2022-08-20T11:58:08.264Z,94809.42
2022-08-20T12:00:40.646Z,94805.04
2022-08-20T12:03:15.557Z,94805.95
2022-08-20T12:05:50.760Z,94812.30
2022-08-20T12:08:27.170Z,94814.63
2022-08-20T12:11:00.029Z,94816.62
2022-08-20T12:13:48.448Z,94816.61
2022-08-20T12:16:26.917Z,94806.80
2022-08-20T12:19:04.597Z,94806.48
2022-08-20T12:21:34.095Z,94807.82
2022-08-20T12:24:04.881Z,94816.21
2022-08-20T12:26:36.578Z,94822.69
2022-08-20T12:29:09.868Z,94817.80
2022-08-20T12:31:43.143Z,94825.16
2022-08-20T12:34:18.880Z,94827.39
2022-08-20T12:36:54.065Z,94837.88
2022-08-20T12:39:28.716Z,94853.95
2022-08-20T12:42:03.127Z,94855.30
2022-08-20T12:44:35.210Z,94861.33
2022-08-20T12:47:27.220Z,94865.63
2022-08-20T12:50:00.682Z,94872.11
2022-08-20T12:52:40.106Z,94889.18
2022-08-20T12:55:11.452Z,94904.67
2022-08-20T12:57:50.322Z,94913.08
2022-08-20T13:00:27.609Z,94935.48
2022-08-20T13:03:09.096Z,94938.59
2022-08-20T13:05:38.915Z,94936.40
2022-08-20T13:08:13.892Z,94927.77
2022-08-20T13:10:46.850Z,94918.22
2022-08-20T13:13:20.324Z,94912.11
2022-08-20T13:15:57.986Z,94913.74
2022-08-20T13:18:26.863Z,94932.43
2022-08-20T13:20:57.735Z,94934.50
2022-08-20T13:23:27.911Z,94937.53
2022-08-20T13:25:57.717Z,94922.22
2022-08-20T13:28:29.598Z,94922.59
2022-08-20T13:31:04.556Z,94915.53
2022-08-20T13:33:39.319Z,94923.98
2022-08-20T13:36:12.759Z,94930.10
2022-08-20T13:38:42.436Z,94938.61
2022-08-20T13:41:15.754Z,94957.64
2022-08-20T13:43:44.534Z,94966.95
2022-08-20T13:46:17.567Z,94973.38
2022-08-20T13:48:51.218Z,94985.71
2022-08-20T13:51:27.630Z,95003.61
2022-08-20T13:54:04.150Z,95009.44
2022-08-20T13:56:34.905Z,95013.39
2022-08-20T13:59:07.451Z,95018.90
2022-08-20T14:01:47.510Z,95019.16
2022-08-20T14:04:20.216Z,95025.84
2022-08-20T14:06:48.777Z,95030.63
2022-08-20T14:09:25.256Z,95035.80
2022-08-20T14:11:59.175Z,95036.78
2022-08-20T14:14:30.811Z,95038.09
2022-08-20T14:17:12.687Z,95039.19
2022-08-20T14:19:48.252Z,95035.48
2022-08-20T14:22:18.148Z,95028.48
2022-08-20T14:24:55.733Z,95025.72
2022-08-20T14:27:31.109Z,95016.33
2022-08-20T14:30:06.169Z,95003.31
2022-08-20T14:32:39.091Z,95002.23
2022-08-20T14:35:12.172Z,94998.70
2022-08-20T14:37:46.814Z,95011.66
2022-08-20T14:40:24.711Z,95005.37
2022-08-20T14:42:55.146Z,95012.05
2022-08-20T14:45:29.556Z,95014.84
2022-08-20T14:48:00.130Z,95016.80
2022-08-20T14:50:37.237Z,95010.59
2022-08-20T14:53:10.579Z,94999.69
2022-08-20T14:55:44.697Z,94977.50
2022-08-20T14:58:18.352Z,94964.85
2022-08-20T15:00:48.224Z,94957.36
2022-08-20T15:03:17.770Z,94960.41
2022-08-20T15:05:51.203Z,94948.21
2022-08-20T15:08:21.448Z,94936.35
2022-08-20T15:10:59.140Z,94915.33
2022-08-20T15:13:30.892Z,94888.75
2022-08-20T15:16:03.211Z,94867.02
2022-08-20T15:18:35.907Z,94853.81
2022-08-20T15:21:10.417Z,94882.67
2022-08-20T15:23:39.817Z,94925.73
2022-08-20T15:26:10.053Z,94954.89
2022-08-20T15:28:41.822Z,94959.14
2022-08-20T15:31:15.394Z,94950.64
2022-08-20T15:33:49.875Z,94944.40
2022-08-20T15:36:18.812Z,94952.80
2022-08-20T15:38:52.183Z,94941.73
2022-08-20T15:41:21.608Z,94927.30
2022-08-20T15:43:55.150Z,94916.31
2022-08-20T15:46:31.137Z,94903.35
2022-08-20T15:49:14.162Z,94886.63
2022-08-20T15:51:50.914Z,94877.73
2022-08-20T15:54:25.820Z,94877.65
2022-08-20T15:57:18.833Z,94884.89
2022-08-20T16:00:25.112Z,94908.43
2022-08-20T16:03:11.200Z,94931.35
2022-08-20T16:05:59.899Z,94942.92
2022-08-20T16:08:49.564Z,94934.17
2022-08-20T16:11:56.095Z,94931.86
2022-08-20T16:14:35.262Z,94930.27
2022-08-20T16:17:12.631Z,94913.59
2022-08-20T16:19:51.517Z,94918.27
2022-08-20T16:22:22.306Z,94927.35
2022-08-20T16:24:52.734Z,94924.91
2022-08-20T16:27:48.352Z,94913.70
2022-08-20T16:30:40.157Z,94907.79
2022-08-20T16:33:33.583Z,94898.45
2022-08-20T16:36:14.762Z,94900.25
2022-08-20T16:39:00.585Z,94898.09
2022-08-20T16:41:40.818Z,94894.58
2022-08-20T16:44:22.631Z,94895.61
2022-08-20T16:47:00.418Z,94898.58
2022-08-20T16:50:08.425Z,94894.84
2022-08-20T16:52:41.653Z,94884.59
2022-08-20T16:55:16.394Z,94895.13
2022-08-20T16:57:56.888Z,94889.81
2022-08-20T17:00:45.024Z,94881.31
2022-08-20T17:03:38.572Z,94869.31
2022-08-20T17:06:30.145Z,94873.23
2022-08-20T17:09:04.813Z,94880.42
2022-08-20T17:11:40.340Z,94888.29
2022-08-20T17:14:18.560Z,94900.09
2022-08-20T17:16:53.275Z,94911.17
2022-08-20T17:19:29.928Z,94918.61
2022-08-20T17:22:12.071Z,94925.16
2022-08-20T17:24:41.154Z,94932.86
2022-08-20T17:27:43.423Z,94927.45
2022-08-20T17:30:28.744Z,94926.48
2022-08-20T17:33:05.218Z,94927.52
2022-08-20T17:35:43.480Z,94927.72
2022-08-20T17:38:45.848Z,94930.74
2022-08-20T17:41:25.204Z,94942.47
2022-08-20T17:44:07.393Z,94946.42
2022-08-20T17:46:47.898Z,94953.48
2022-08-20T17:49:37.766Z,94953.11
2022-08-20T17:52:26.147Z,94958.71
2022-08-20T17:54:59.196Z,94962.18
2022-08-20T17:57:35.875Z,94964.69
2022-08-20T18:00:14.462Z,94969.46
2022-08-20T18:02:45.883Z,94975.78
2022-08-20T18:05:21.989Z,94984.31
2022-08-20T18:08:12.288Z,94985.59
2022-08-20T18:11:01.842Z,94986.77
2022-08-20T18:13:55.740Z,94980.42
2022-08-20T18:17:17.919Z,94979.13
2022-08-20T18:20:21.021Z,94975.52
2022-08-20T18:22:56.406Z,94975.27
2022-08-20T18:25:50.153Z,94981.17
2022-08-20T18:28:52.891Z,94985.75
2022-08-20T18:31:54.053Z,94992.77
2022-08-20T18:34:40.643Z,94990.55
2022-08-20T18:37:25.859Z,94988.55
2022-08-20T18:40:12.034Z,94986.03
2022-08-20T18:42:41.093Z,94979.30
2022-08-20T18:45:13.428Z,94974.69
2022-08-20T18:47:46.177Z,94966.33
2022-08-20T18:50:33.211Z,94958.02
2022-08-20T18:53:17.096Z,94953.63
2022-08-20T18:56:04.916Z,94952.96
2022-08-20T18:58:54.703Z,94952.55
2022-08-20T19:01:26.307Z,94951.10
2022-08-20T19:03:58.564Z,94949.42
2022-08-20T19:06:56.884Z,94948.15
2022-08-20T19:09:55.697Z,94944.17
2022-08-20T19:12:44.404Z,94943.90
2022-08-20T19:15:19.294Z,94944.81
2022-08-20T19:18:09.980Z,94938.77
2022-08-20T19:20:51.762Z,94934.92
2022-08-20T19:23:26.558Z,94934.05
2022-08-20T19:26:25.313Z,94935.52
2022-08-20T19:29:12.552Z,94934.13
2022-08-20T19:31:48.972Z,94930.08
2022-08-20T19:34:28.736Z,94928.65
2022-08-20T19:37:27.704Z,94926.52
2022-08-20T19:39:56.847Z,94925.11
2022-08-20T19:42:30.724Z,94928.33
2022-08-20T19:45:07.897Z,94929.67
2022-08-20T19:48:00.466Z,94927.30
2022-08-20T19:51:06.680Z,94926.16
2022-08-20T19:53:43.371Z,94924.94
2022-08-20T19:56:20.596Z,94928.70
2022-08-20T19:59:05.816Z,94926.56
2022-08-20T20:01:36.793Z,94919.20
2022-08-20T20:04:15.173Z,94915.84
2022-08-20T20:06:49.849Z,94916.92
2022-08-20T20:09:28.443Z,94908.25
2022-08-20T20:12:03.137Z,94905.32
2022-08-20T20:14:36.993Z,94904.99
2022-08-20T20:17:08.021Z,94907.45
2022-08-20T20:19:57.503Z,94909.87
2022-08-20T20:22:28.443Z,94908.35
2022-08-20T20:25:19.793Z,94911.95
2022-08-20T20:27:54.849Z,94910.54
2022-08-20T20:30:31.059Z,94907.09
2022-08-20T20:33:03.693Z,94906.89
2022-08-20T20:35:36.277Z,94909.02
2022-08-20T20:38:13.525Z,94909.17
2022-08-20T20:40:52.268Z,94906.73
2022-08-20T20:43:42.035Z,94902.69
2022-08-20T20:46:24.045Z,94897.94
2022-08-20T20:48:59.106Z,94892.05
2022-08-20T20:51:33.625Z,94903.91
2022-08-20T20:54:08.388Z,94907.19
2022-08-20T20:56:41.608Z,94910.86
2022-08-20T20:59:11.495Z,94914.57
2022-08-20T21:01:49.928Z,94920.52
2022-08-20T21:04:24.250Z,94921.09
2022-08-20T21:06:55.561Z,94915.70
2022-08-20T21:09:26.917Z,94924.98
2022-08-20T21:11:55.540Z,94923.72
2022-08-20T21:14:24.799Z,94930.63
2022-08-20T21:16:56.970Z,94931.10
2022-08-20T21:19:26.613Z,94930.30
2022-08-20T21:21:56.619Z,94936.70
2022-08-20T21:24:26.819Z,94935.91
2022-08-20T21:26:55.724Z,94931.52
2022-08-20T21:29:32.552Z,94930.64
2022-08-20T21:32:01.765Z,94935.81
2022-08-20T21:34:30.456Z,94928.92
2022-08-20T21:37:03.229Z,94933.02
2022-08-20T21:39:33.045Z,94937.80
2022-08-20T21:42:03.983Z,94940.66
2022-08-20T21:44:46.209Z,94940.48
2022-08-20T21:47:19.957Z,94939.39
2022-08-20T21:49:48.585Z,94937.64
2022-08-20T21:52:21.022Z,94938.77
2022-08-20T21:54:51.511Z,94933.59
2022-08-20T21:57:24.646Z,94939.13
2022-08-20T21:59:54.586Z,94937.61
2022-08-20T22:02:25.160Z,94943.39
2022-08-20T22:04:55.308Z,94947.54
2022-08-20T22:07:26.517Z,94947.23
2022-08-20T22:09:56.231Z,94942.70
2022-08-20T22:12:27.020Z,94937.08
2022-08-20T22:14:59.588Z,94933.81
2022-08-20T22:17:31.248Z,94932.48
2022-08-20T22:20:04.477Z,94931.32
2022-08-20T22:22:35.528Z,94933.44
2022-08-20T22:25:06.220Z,94936.25
2022-08-20T22:27:41.214Z,94942.14
2022-08-20T22:30:11.140Z,94944.63
2022-08-20T22:32:51.954Z,94939.73
2022-08-20T22:35:21.455Z,94942.96
2022-08-20T22:37:50.586Z,94934.55
2022-08-20T22:40:19.414Z,94930.86
2022-08-20T22:42:48.069Z,94929.59
2022-08-20T22:45:18.080Z,94932.58
2022-08-20T22:47:48.161Z,94932.70
2022-08-20T22:50:23.504Z,94932.51
2022-08-20T22:52:53.345Z,94939.45
2022-08-20T22:55:24.397Z,94932.29
2022-08-20T22:57:54.892Z,94926.65
2022-08-20T23:00:26.571Z,94917.39
2022-08-20T23:02:59.600Z,94923.44
2022-08-20T23:05:31.894Z,94924.36
2022-08-20T23:08:01.398Z,94923.25
2022-08-20T23:10:30.898Z,94925.70
2022-08-20T23:13:00.095Z,94923.58
2022-08-20T23:15:38.033Z,94926.85
2022-08-20T23:18:17.233Z,94925.24
2022-08-20T23:20:54.152Z,94918.39
2022-08-20T23:23:26.140Z,94913.58
2022-08-20T23:25:56.332Z,94905.89
2022-08-20T23:28:29.193Z,94904.99
2022-08-20T23:30:59.442Z,94903.31
2022-08-20T23:33:27.765Z,94903.58
2022-08-20T23:35:59.721Z,94900.90
2022-08-20T23:38:29.618Z,94897.61
2022-08-20T23:41:01.910Z,94900.86
2022-08-20T23:43:34.125Z,94898.70
2022-08-20T23:46:06.324Z,94898.83
2022-08-20T23:48:37.689Z,94899.61
2022-08-20T23:51:08.567Z,94900.42
2022-08-20T23:53:39.104Z,94897.06
2022-08-20T23:56:11.177Z,94904.94
2022-08-20T23:58:39.688Z,94901.61
